Time;durP1;ratioP1;P1;durP2;ratioP2;P2;SDS_P1;SDS_P2;PMS_P1;PMS_P2;Temp;Humidity;BMP_temperature;BMP_pressure;BME280_temperature;BME280_humidity;BME280_pressure;Samples;Min_cycle;Max_cycle;Signal;HPM_P1;HPM_P2
2021/11/17 02:27:34;;;;;;;104.10;32.47;;;;;;;6.35;92.91;101877.97;5033698;28;20107;-40
2021/11/17 08:07:32;;;;;;;209.40;49.60;;;;;;;8.38;100.00;101921.75;5062394;28;20387;-38
2021/11/17 08:09:57;;;;;;;216.98;51.60;;;;;;;8.39;100.00;101921.63;5067501;28;20048;-39
2021/11/17 08:12:23;;;;;;;211.48;51.90;;;;;;;8.40;100.00;101931.38;5068310;28;20032;-39
2021/11/17 08:14:48;;;;;;;206.75;51.22;;;;;;;8.42;100.00;101937.44;5069199;28;20442;-40
2021/11/17 08:17:15;;;;;;;201.80;51.65;;;;;;;8.45;100.00;101937.19;5069396;28;20029;-40
2021/11/17 08:19:40;;;;;;;210.10;51.67;;;;;;;8.48;100.00;101928.00;5069290;28;20032;-40
2021/11/17 08:22:07;;;;;;;216.48;52.08;;;;;;;8.50;100.00;101934.06;5069594;28;20025;-41
2021/11/17 08:24:34;;;;;;;205.85;51.95;;;;;;;8.51;100.00;101936.59;5069312;28;20055;-40
2021/11/17 08:27:00;;;;;;;199.82;50.70;;;;;;;8.52;100.00;101938.28;5069342;28;20127;-40
2021/11/17 08:29:26;;;;;;;212.35;49.53;;;;;;;8.54;100.00;101939.00;5069561;28;20483;-39
2021/11/17 08:31:51;;;;;;;191.65;49.50;;;;;;;8.59;100.00;101945.78;5068708;28;20119;-40
2021/11/17 08:34:17;;;;;;;208.30;50.00;;;;;;;8.61;100.00;101941.09;5050044;28;20040;-40
2021/11/17 08:36:43;;;;;;;184.55;48.10;;;;;;;8.64;100.00;101946.22;5049163;28;20057;-39
2021/11/17 08:39:09;;;;;;;190.38;49.75;;;;;;;8.67;100.00;101948.59;5049223;28;20025;-40
2021/11/17 08:41:34;;;;;;;197.63;48.70;;;;;;;8.71;100.00;101952.69;5049103;28;20083;-41
2021/11/17 08:44:00;;;;;;;186.05;45.08;;;;;;;8.75;100.00;101954.09;5051668;28;20025;-41
2021/11/17 08:46:26;;;;;;;170.18;44.08;;;;;;;8.79;100.00;101953.69;5051376;28;20491;-42
2021/11/17 08:48:53;;;;;;;175.27;44.72;;;;;;;8.87;100.00;101957.47;5048886;28;20094;-41
2021/11/17 08:51:20;;;;;;;142.35;35.97;;;;;;;8.95;100.00;101957.59;5048778;28;20384;-41
2021/11/17 08:53:48;;;;;;;110.33;30.60;;;;;;;9.08;100.00;101965.34;5048641;28;20036;-40
2021/11/17 08:56:14;;;;;;;69.30;20.48;;;;;;;9.27;100.00;101965.31;5048713;28;20048;-40
2021/11/17 08:58:42;;;;;;;46.38;14.25;;;;;;;9.40;100.00;101965.84;5048572;28;20030;-40
2021/11/17 09:01:09;;;;;;;36.22;10.82;;;;;;;9.59;100.00;101970.28;5048303;28;20025;-41
2021/11/17 09:03:35;;;;;;;33.70;11.18;;;;;;;9.78;100.00;101974.72;5047621;28;20029;-40
2021/11/17 09:06:03;;;;;;;36.33;9.75;;;;;;;9.85;98.73;101969.63;5045343;28;20056;-41
2021/11/17 09:08:29;;;;;;;24.00;6.20;;;;;;;10.03;95.75;101966.94;5048775;28;20033;-39
2021/11/17 09:11:01;;;;;;;25.42;6.38;;;;;;;10.11;93.96;101977.81;5048472;28;20117;-40
2021/11/17 09:13:27;;;;;;;25.15;5.30;;;;;;;10.17;92.46;101979.91;5048848;28;20463;-40
2021/11/17 09:15:55;;;;;;;21.50;5.00;;;;;;;10.26;90.89;101976.28;5049090;28;20029;-40
2021/11/17 09:18:23;;;;;;;26.90;5.82;;;;;;;10.31;90.88;101979.38;5039774;28;20049;-40
2021/11/17 09:20:48;;;;;;;;;;;;;;;10.43;90.49;101987.25;5036333;28;20025;-39
2021/11/17 09:23:16;;;;;;;23.20;4.60;;;;;;;10.53;89.43;101982.63;5017367;28;20027;-40
2021/11/17 09:25:41;;;;;;;25.92;5.20;;;;;;;10.62;88.95;101986.25;5035052;28;20029;-40
2021/11/17 09:28:07;;;;;;;17.35;4.05;;;;;;;10.69;88.69;101984.63;5034374;28;20520;-40
2021/11/17 09:30:36;;;;;;;16.17;4.75;;;;;;;10.69;88.81;101995.41;5034809;28;20033;-40
2021/11/17 09:33:04;;;;;;;21.88;4.57;;;;;;;10.76;86.96;101989.25;5026751;28;20420;-40
2021/11/17 09:35:31;;;;;;;34.47;6.68;;;;;;;10.75;86.54;101990.25;5032769;28;20034;-40
2021/11/17 09:37:57;;;;;;;24.55;4.70;;;;;;;10.75;86.54;101995.63;5034993;28;20036;-39
2021/11/17 09:40:26;;;;;;;18.02;4.13;;;;;;;10.77;85.88;101998.19;5034674;28;20022;-41
2021/11/17 09:42:52;;;;;;;22.38;4.03;;;;;;;10.83;86.89;101997.56;5034586;28;20076;-40
2021/11/17 09:45:17;;;;;;;27.33;4.75;;;;;;;10.89;86.52;102005.00;5034564;28;20064;-40
2021/11/17 09:47:44;;;;;;;15.38;3.85;;;;;;;10.96;86.28;102008.78;5034591;28;20060;-40
2021/11/17 09:50:34;;;;;;;22.63;4.30;;;;;;;11.03;87.06;102008.97;5034467;28;20537;-40
2021/11/17 09:53:28;;;;;;;24.70;4.43;;;;;;;11.21;85.32;102020.56;5034008;28;20454;-40
2021/11/17 09:56:11;;;;;;;19.20;3.25;;;;;;;11.28;83.06;102028.03;5034693;28;20022;-40
2021/11/17 09:58:40;;;;;;;23.15;3.97;;;;;;;11.38;82.72;102037.72;5033165;28;20133;-40
2021/11/17 10:01:20;;;;;;;33.38;4.60;;;;;;;11.36;82.79;102041.56;5033093;28;20022;-41
2021/11/17 10:03:55;;;;;;;19.45;4.82;;;;;;;11.34;81.70;102035.50;5034454;28;20026;-39
2021/11/17 10:13:10;;;;;;;23.98;4.25;;;;;;;11.29;79.99;102041.34;5032758;28;20044;-40
2021/11/17 10:14:53;;;;;;;27.40;3.72;;;;;;;11.61;80.37;102039.88;5024733;28;20092;-41
2021/11/17 10:17:43;;;;;;;28.92;4.20;;;;;;;12.11;78.29;102046.38;5033962;28;20447;-40
2021/11/17 10:20:20;;;;;;;36.03;4.80;;;;;;;12.45;75.33;102039.09;5033814;28;20103;-40
2021/11/17 10:22:53;;;;;;;30.37;4.10;;;;;;;12.52;73.35;102044.69;5033895;28;20028;-40
2021/11/17 10:25:22;;;;;;;28.70;4.35;;;;;;;12.80;73.31;102052.50;5032105;28;20033;-40
2021/11/17 10:27:59;;;;;;;49.75;4.50;;;;;;;12.86;73.37;102058.06;5033404;28;20095;-41
2021/11/17 10:30:34;;;;;;;29.42;4.88;;;;;;;12.72;71.56;102053.34;5032203;28;20491;-42
2021/11/17 10:33:05;;;;;;;33.78;4.35;;;;;;;12.77;70.30;102059.09;5034824;28;20029;-41
2021/11/17 10:35:44;;;;;;;32.03;4.70;;;;;;;12.90;71.62;102062.13;5034326;28;20030;-40
2021/11/17 10:38:22;;;;;;;33.78;4.15;;;;;;;13.16;69.40;102063.81;5033385;28;20374;-40
2021/11/17 10:40:57;;;;;;;28.63;3.83;;;;;;;13.30;68.35;102052.38;5033655;28;20036;-41
2021/11/17 10:43:26;;;;;;;34.13;4.68;;;;;;;13.80;67.21;102056.66;5033081;28;20034;-41
2021/11/17 10:46:04;;;;;;;44.75;5.75;;;;;;;14.02;64.55;102067.75;5032811;28;20025;-41
2021/11/17 10:48:33;;;;;;;31.45;4.45;;;;;;;13.97;64.96;102056.63;5032996;28;20136;-41
2021/11/17 10:51:06;;;;;;;29.17;4.80;;;;;;;14.07;64.92;102073.50;5033257;28;20025;-41
2021/11/17 10:53:32;;;;;;;28.13;4.57;;;;;;;14.44;63.16;102074.69;5015460;28;20076;-41
2021/11/17 10:56:05;;;;;;;32.25;4.82;;;;;;;14.30;61.26;102072.72;5031867;28;20029;-40
2021/11/17 10:58:34;;;;;;;44.47;5.03;;;;;;;13.63;62.34;102073.94;5033681;28;20388;-40
2021/11/17 11:01:20;;;;;;;34.95;5.25;;;;;;;13.12;62.97;102078.69;5033031;28;20025;-41
2021/11/17 11:03:48;;;;;;;30.17;5.03;;;;;;;13.10;65.81;102072.63;5037017;28;20020;-39
2021/11/17 11:06:48;;;;;;;39.25;4.93;;;;;;;13.23;66.62;102070.25;5031540;28;20056;-41
2021/11/17 11:09:22;;;;;;;34.58;6.80;;;;;;;13.54;67.15;102067.72;5032250;28;20395;-40
2021/11/17 11:11:50;;;;;;;34.08;4.75;;;;;;;13.57;67.10;102072.78;5030606;28;20025;-40
2021/11/17 11:14:28;;;;;;;27.92;4.30;;;;;;;13.76;67.01;102074.25;5031150;28;20542;-40
2021/11/17 11:17:25;;;;;;;35.75;4.80;;;;;;;14.08;67.22;102068.91;5032613;28;20116;-40
2021/11/17 11:19:51;;;;;;;20.40;3.30;;;;;;;14.27;66.00;102072.06;5031443;28;20033;-41
2021/11/17 11:22:21;;;;;;;29.45;4.85;;;;;;;14.12;65.44;102075.69;5032221;28;20032;-40
2021/11/17 11:24:50;;;;;;;29.83;3.88;;;;;;;14.31;65.48;102059.00;5032063;28;20099;-40
2021/11/17 11:27:19;;;;;;;22.52;3.47;;;;;;;14.31;64.38;102063.59;5031073;28;20036;-41
2021/11/17 11:30:03;;;;;;;24.73;3.58;;;;;;;13.88;64.20;102068.50;5032386;28;20431;-40
2021/11/17 11:32:28;;;;;;;25.80;4.10;;;;;;;13.67;65.10;102071.75;5032048;28;20526;-40
2021/11/17 11:34:59;;;;;;;24.65;4.43;;;;;;;13.55;65.42;102069.41;5031917;28;20029;-41
2021/11/17 11:37:25;;;;;;;27.52;3.75;;;;;;;13.66;65.50;102070.91;5031744;28;20032;-40
2021/11/17 11:40:01;;;;;;;25.23;4.07;;;;;;;13.61;67.34;102076.84;5031007;28;20029;-40
2021/11/17 11:42:41;;;;;;;27.50;4.63;;;;;;;14.00;65.76;102073.34;5032156;28;20029;-41
2021/11/17 11:45:09;;;;;;;24.65;3.75;;;;;;;14.31;63.48;102077.97;5032186;28;20033;-40
2021/11/17 11:47:40;;;;;;;18.52;4.38;;;;;;;14.97;61.43;102077.59;5032205;28;20034;-41
2021/11/17 11:50:31;;;;;;;28.35;4.25;;;;;;;14.75;60.91;102090.13;5030868;28;20057;-41
2021/11/17 11:52:59;;;;;;;33.92;3.92;;;;;;;14.19;64.48;102088.34;5032026;28;20485;-41
2021/11/17 11:55:24;;;;;;;32.08;4.65;;;;;;;14.15;63.13;102092.41;5032077;28;20425;-40
2021/11/17 11:58:12;;;;;;;30.10;4.47;;;;;;;13.66;65.22;102081.72;5031952;28;20137;-40
2021/11/17 12:00:37;;;;;;;33.40;4.50;;;;;;;13.36;65.93;102089.53;5028119;28;20128;-40
2021/11/17 12:03:09;;;;;;;34.72;4.38;;;;;;;13.19;66.42;102093.22;5032295;28;20155;-41
2021/11/17 12:05:46;;;;;;;31.08;5.05;;;;;;;13.04;68.29;102092.22;5030608;28;20029;-40
2021/11/17 12:08:48;;;;;;;27.90;3.80;;;;;;;13.12;66.85;102097.63;5030847;28;20021;-41
2021/11/17 12:11:21;;;;;;;29.25;4.50;;;;;;;13.14;67.54;102092.91;5022432;28;20044;-40
2021/11/17 12:14:00;;;;;;;26.80;4.32;;;;;;;13.28;67.88;102094.13;5021729;28;20033;-41
2021/11/17 12:16:37;;;;;;;39.58;4.65;;;;;;;13.32;68.20;102090.03;5012335;28;20344;-40
2021/11/17 12:19:10;;;;;;;35.73;4.43;;;;;;;13.40;66.76;102095.44;5012653;28;20109;-40
2021/11/17 12:21:38;;;;;;;33.70;4.72;;;;;;;13.59;66.67;102105.09;5014244;28;20029;-40
2021/11/17 12:24:06;;;;;;;;;;;;;;;13.56;65.19;102099.97;5032478;28;20032;-40
2021/11/17 12:26:34;;;;;;;36.35;4.07;;;;;;;13.63;64.38;102119.09;5031816;28;19916;-40
2021/11/17 12:29:21;;;;;;;42.40;5.00;;;;;;;13.37;65.03;102110.13;5031495;28;20026;-41
2021/11/17 12:32:23;;;;;;;39.13;5.10;;;;;;;13.45;66.64;102116.56;5012205;28;20439;-41
2021/11/17 12:34:54;;;;;;;40.65;4.80;;;;;;;13.58;64.94;102116.91;5012102;28;20269;-41
2021/11/17 12:37:27;;;;;;;43.95;4.82;;;;;;;13.56;63.50;102111.69;5011899;28;20056;-41
2021/11/17 12:40:08;;;;;;;35.33;3.63;;;;;;;13.43;63.41;102108.66;5012319;28;20049;-41
2021/11/17 12:42:54;;;;;;;30.20;4.53;;;;;;;13.14;64.71;102114.53;5012128;28;20034;-40
2021/11/17 12:45:46;;;;;;;36.13;4.95;;;;;;;12.79;65.87;102123.75;5012436;28;20026;-41
2021/11/17 12:48:28;;;;;;;27.80;3.67;;;;;;;12.57;67.10;102117.09;5028919;28;20040;-40
2021/11/17 12:51:00;;;;;;;34.42;4.78;;;;;;;12.51;68.80;102114.03;5033060;28;20033;-41
2021/11/17 12:53:43;;;;;;;32.35;4.30;;;;;;;12.46;68.73;102116.38;5036080;28;20033;-40
2021/11/17 12:56:21;;;;;;;44.65;6.05;;;;;;;12.52;67.13;102117.59;5037670;28;20120;-40
2021/11/17 12:58:56;;;;;;;33.90;5.32;;;;;;;12.51;66.82;102124.84;5034052;28;20029;-41
2021/11/17 13:01:28;;;;;;;31.05;3.72;;;;;;;12.48;66.33;102127.88;5033803;28;20033;-41
2021/11/17 13:03:53;;;;;;;52.72;4.85;;;;;;;12.57;66.87;102130.59;5046382;28;20033;-41
2021/11/17 13:06:18;;;;;;;64.05;4.97;;;;;;;12.80;65.94;102126.28;5050130;28;20049;-41
2021/11/17 13:08:45;;;;;;;28.63;5.10;;;;;;;12.96;64.21;102139.00;5054971;28;20025;-41
2021/11/17 13:11:22;;;;;;;50.75;5.03;;;;;;;13.02;63.44;102126.66;5055058;28;20028;-41
2021/11/17 13:13:55;;;;;;;36.80;4.95;;;;;;;12.88;62.48;102136.28;5053840;28;20036;-41
2021/11/17 13:16:38;;;;;;;38.38;3.92;;;;;;;12.78;61.95;102139.09;5054868;28;20090;-41
2021/11/17 13:19:06;;;;;;;25.00;3.53;;;;;;;12.42;64.01;102154.66;5054061;28;20057;-41
2021/11/17 13:21:36;;;;;;;;;;;;;;;12.11;65.80;102151.63;5054370;28;20461;-41
2021/11/17 13:24:16;;;;;;;32.20;4.70;;;;;;;12.00;65.20;102141.97;5030385;28;19913;-41
2021/11/17 13:26:49;;;;;;;27.15;4.05;;;;;;;11.87;65.94;102145.09;5015471;28;20030;-40
2021/11/17 13:29:23;;;;;;;32.45;4.25;;;;;;;12.06;64.81;102131.41;5013799;28;20033;-41
2021/11/17 13:32:02;;;;;;;27.15;4.85;;;;;;;12.21;64.13;102128.09;5015568;28;20041;-40
2021/11/17 13:34:39;;;;;;;41.42;4.32;;;;;;;12.50;64.42;102133.94;5015296;28;20057;-41
2021/11/17 13:37:34;;;;;;;37.72;3.90;;;;;;;12.84;64.09;102135.75;5014719;28;20029;-41
2021/11/17 13:40:24;;;;;;;35.92;3.70;;;;;;;13.39;61.36;102128.91;5015157;28;20029;-41
2021/11/17 13:42:51;;;;;;;46.05;5.07;;;;;;;13.64;60.96;102129.75;5027160;28;20116;-41
2021/11/17 13:45:20;;;;;;;37.28;5.50;;;;;;;14.02;60.42;102143.56;5034940;28;20049;-40
2021/11/17 13:47:46;;;;;;;30.45;3.92;;;;;;;14.26;59.34;102148.06;5034637;28;20033;-40
2021/11/17 13:50:12;;;;;;;27.08;4.10;;;;;;;14.16;59.99;102148.25;5034424;28;20037;-41
2021/11/17 13:52:42;;;;;;;40.55;4.35;;;;;;;14.19;61.25;102142.50;5034414;28;20029;-41
2021/11/17 13:55:12;;;;;;;38.58;4.38;;;;;;;13.98;61.27;102139.50;5033062;28;20029;-41
2021/11/17 13:57:38;;;;;;;32.10;3.80;;;;;;;13.72;61.36;102132.47;5034359;28;20472;-41
2021/11/17 14:00:09;;;;;;;46.60;4.72;;;;;;;13.56;62.46;102137.84;5027955;28;20034;-41
2021/11/17 14:02:35;;;;;;;31.08;4.57;;;;;;;13.59;63.07;102154.63;5013197;28;20489;-41
2021/11/17 14:05:01;;;;;;;36.17;4.10;;;;;;;13.61;62.42;102162.53;5012758;28;20025;-42
2021/11/17 14:07:27;;;;;;;40.97;5.45;;;;;;;13.62;62.79;102153.44;5014409;28;20058;-41
2021/11/17 14:09:52;;;;;;;38.08;4.10;;;;;;;13.58;61.48;102161.00;5013062;28;20665;-41
2021/11/17 14:12:20;;;;;;;38.28;6.57;;;;;;;13.57;62.03;102163.91;5014303;28;20129;-41
2021/11/17 14:14:46;;;;;;;;;;;;;;;13.55;62.47;102165.94;5014918;28;20025;-41
2021/11/17 14:17:11;;;;;;;39.83;4.55;;;;;;;13.56;61.70;102162.19;5014353;28;19920;-41
2021/11/17 14:19:38;;;;;;;29.20;4.38;;;;;;;13.49;61.37;102170.16;5014340;28;20030;-42
2021/11/17 14:22:04;;;;;;;35.63;4.25;;;;;;;13.49;61.75;102166.63;5014251;28;20084;-41
2021/11/17 14:24:29;;;;;;;34.28;5.35;;;;;;;13.57;60.52;102166.63;5014186;28;20061;-40
2021/11/17 14:26:54;;;;;;;28.90;4.68;;;;;;;13.58;61.31;102171.00;5012706;28;20098;-40
2021/11/17 14:29:29;;;;;;;30.05;3.55;;;;;;;13.71;61.03;102182.16;5013768;28;20064;-41
2021/11/17 14:31:57;;;;;;;38.90;4.72;;;;;;;13.77;59.68;102186.91;5012539;28;20032;-40
2021/11/17 14:34:23;;;;;;;35.55;4.38;;;;;;;13.44;60.08;102185.22;5013675;28;20517;-40
2021/11/17 14:37:01;;;;;;;32.28;4.07;;;;;;;13.02;61.66;102183.41;5012619;28;20030;-41
2021/11/17 14:39:27;;;;;;;33.88;4.82;;;;;;;12.49;63.12;102188.97;5014013;28;20369;-40
2021/11/17 14:41:52;;;;;;;34.17;5.88;;;;;;;12.21;64.29;102192.84;5013592;28;20036;-40
2021/11/17 14:44:17;;;;;;;33.13;4.07;;;;;;;11.97;64.70;102186.31;5013534;28;20038;-41
2021/11/17 14:46:43;;;;;;;33.92;4.32;;;;;;;11.80;66.83;102184.47;5013637;28;20041;-40
2021/11/17 14:49:09;;;;;;;25.95;5.35;;;;;;;11.69;67.20;102190.09;5013757;28;20036;-40
2021/11/17 14:51:34;;;;;;;33.20;4.03;;;;;;;11.57;66.29;102190.34;5013615;28;20022;-40
2021/11/17 14:54:00;;;;;;;33.28;4.68;;;;;;;11.50;66.92;102189.25;5013752;28;20026;-40
2021/11/17 14:56:25;;;;;;;24.27;4.35;;;;;;;11.37;68.37;102199.59;5013329;28;20122;-40
2021/11/17 14:58:51;;;;;;;28.65;4.13;;;;;;;11.26;68.64;102205.22;5013544;28;20045;-40
2021/11/17 15:01:25;;;;;;;19.80;3.80;;;;;;;11.27;68.18;102204.22;5013507;28;20371;-40
2021/11/17 15:03:52;;;;;;;47.25;9.15;;;;;;;11.19;68.17;102199.59;5013286;28;20396;-40
2021/11/17 15:06:19;;;;;;;36.65;5.38;;;;;;;11.07;68.87;102208.91;5013339;28;20046;-40
2021/11/17 15:08:45;;;;;;;24.45;3.55;;;;;;;11.04;68.10;102207.34;5012079;28;20026;-41
2021/11/17 15:11:11;;;;;;;32.03;6.05;;;;;;;10.95;69.77;102210.94;5012745;28;20030;-40
2021/11/17 15:13:36;;;;;;;30.38;4.90;;;;;;;10.87;69.07;102209.00;5012828;28;20056;-40
2021/11/17 15:16:03;;;;;;;37.72;7.70;;;;;;;10.79;70.08;102214.28;5011405;28;20491;-40
2021/11/17 15:18:28;;;;;;;33.20;4.78;;;;;;;10.82;70.59;102207.75;5012998;28;20030;-41
2021/11/17 15:20:55;;;;;;;28.25;4.70;;;;;;;10.79;70.88;102216.13;5013414;28;20988;-41
2021/11/17 15:23:21;;;;;;;39.20;4.03;;;;;;;10.80;70.68;102217.84;5013015;28;20500;-40
2021/11/17 15:25:48;;;;;;;31.15;4.20;;;;;;;10.76;71.23;102223.50;5013107;28;20034;-41
2021/11/17 15:28:27;;;;;;;27.80;3.20;;;;;;;10.71;70.67;102225.81;5013103;28;20109;-41
2021/11/17 15:30:56;;;;;;;27.88;3.60;;;;;;;10.65;70.57;102221.03;5012984;28;20131;-40
2021/11/17 15:33:22;;;;;;;22.88;3.63;;;;;;;10.66;69.66;102232.63;5013066;28;20034;-39
2021/11/17 15:35:47;;;;;;;24.75;3.30;;;;;;;10.58;69.70;102233.38;5011556;28;20451;-39
2021/11/17 15:38:13;;;;;;;33.33;3.60;;;;;;;10.49;69.88;102239.66;5013126;28;20033;-41
2021/11/17 15:40:42;;;;;;;36.47;4.30;;;;;;;10.39;70.11;102228.91;5014705;28;20034;-41
2021/11/17 15:43:08;;;;;;;21.67;3.33;;;;;;;10.31;70.17;102228.81;5031296;28;20041;-41
2021/11/17 15:45:33;;;;;;;25.63;3.97;;;;;;;10.28;70.74;102234.47;5032834;28;20025;-40
2021/11/17 15:47:59;;;;;;;22.00;3.20;;;;;;;10.20;71.73;102231.63;5043199;28;20064;-39
2021/11/17 15:50:29;;;;;;;33.97;3.63;;;;;;;10.16;71.55;102228.38;5031307;28;20021;-41
2021/11/17 15:52:55;;;;;;;31.42;4.07;;;;;;;10.15;72.15;102240.13;5042996;28;20045;-40
2021/11/17 15:55:21;;;;;;;24.45;3.30;;;;;;;10.13;71.92;102233.22;5035678;28;20033;-40
2021/11/17 15:57:47;;;;;;;32.47;3.20;;;;;;;10.14;72.72;102233.06;5032751;28;20041;-40
2021/11/17 16:00:14;;;;;;;23.60;3.10;;;;;;;10.10;73.10;102242.41;5052273;28;20033;-40
2021/11/17 16:02:40;;;;;;;35.42;3.95;;;;;;;10.03;72.95;102247.53;5050200;28;20025;-40
2021/11/17 16:05:06;;;;;;;31.20;3.72;;;;;;;10.04;72.57;102257.28;5027463;28;20027;-40
2021/11/17 16:07:31;;;;;;;31.88;3.92;;;;;;;9.99;73.09;102248.81;5027906;28;20459;-42
2021/11/17 16:09:58;;;;;;;26.48;3.75;;;;;;;9.95;73.95;102251.91;5012892;28;20040;-41
2021/11/17 16:12:25;;;;;;;30.15;4.05;;;;;;;9.92;73.59;102249.53;5009502;28;20139;-41
2021/11/17 16:14:50;;;;;;;29.77;3.20;;;;;;;9.93;73.54;102256.63;5009346;28;20485;-40
2021/11/17 16:17:16;;;;;;;32.45;3.63;;;;;;;9.87;74.18;102258.88;5009573;28;20088;-42
2021/11/17 16:19:46;;;;;;;35.40;3.72;;;;;;;9.84;73.28;102267.22;5009541;28;20438;-40
2021/11/17 16:22:33;;;;;;;25.63;3.67;;;;;;;9.81;73.64;102267.50;5009432;28;20029;-40
2021/11/17 16:27:45;;;;;;;24.02;3.03;;;;;;;9.77;73.86;102276.84;5011068;28;20466;-39
2021/11/17 16:30:13;;;;;;;32.22;3.72;;;;;;;9.70;73.49;102270.34;5013488;28;20030;-39
2021/11/17 16:32:40;;;;;;;34.20;7.85;;;;;;;9.67;73.66;102289.44;5013327;28;20092;-41
2021/11/17 16:35:07;;;;;;;26.10;3.78;;;;;;;9.66;73.39;102285.03;5012087;28;20484;-39
2021/11/17 16:37:32;;;;;;;33.03;4.10;;;;;;;9.65;73.26;102294.09;5013102;28;20051;-40
2021/11/17 16:39:58;;;;;;;32.47;4.10;;;;;;;9.66;73.53;102285.91;5011859;28;20030;-40
2021/11/17 16:42:24;;;;;;;36.78;4.25;;;;;;;9.67;74.45;102300.19;5015906;28;20025;-40
2021/11/17 16:44:49;;;;;;;36.45;3.88;;;;;;;9.67;74.74;102300.19;5034809;28;20180;-40
2021/11/17 16:47:15;;;;;;;19.23;3.40;;;;;;;9.72;75.13;102308.69;5044243;28;20104;-39
2021/11/17 16:49:43;;;;;;;33.90;3.85;;;;;;;9.75;75.11;102313.78;5033881;28;20033;-41
2021/11/17 16:52:22;;;;;;;27.02;3.50;;;;;;;9.77;74.63;102317.19;5037877;28;20379;-39
2021/11/17 16:55:00;;;;;;;36.92;3.38;;;;;;;9.78;74.48;102329.63;5023875;28;20025;-40
2021/11/17 16:57:27;;;;;;;30.88;3.53;;;;;;;9.77;74.65;102321.69;5012915;28;20025;-39
2021/11/17 16:59:54;;;;;;;26.40;3.42;;;;;;;9.79;73.76;102325.94;5026523;28;20112;-39
2021/11/17 17:02:21;;;;;;;22.73;3.47;;;;;;;9.78;73.99;102329.63;5033177;28;20084;-40
2021/11/17 17:04:46;;;;;;;28.58;4.10;;;;;;;9.77;73.97;102327.94;5051212;28;20031;-41
2021/11/17 17:07:13;;;;;;;28.40;4.10;;;;;;;9.75;74.46;102340.66;5052376;28;20120;-39
2021/11/17 17:09:39;;;;;;;28.50;3.72;;;;;;;9.78;73.69;102339.53;5052570;28;20028;-39
2021/11/17 17:12:06;;;;;;;38.50;4.05;;;;;;;9.80;73.26;102349.16;5038100;28;20492;-39
2021/11/17 17:14:31;;;;;;;34.15;3.95;;;;;;;9.80;74.45;102353.69;5032094;28;20685;-40
2021/11/17 17:16:57;;;;;;;27.23;4.15;;;;;;;9.75;74.45;102362.19;5044344;28;20033;-40
2021/11/17 17:19:22;;;;;;;31.67;3.85;;;;;;;9.74;73.95;102363.19;5032265;28;20036;-40
2021/11/17 17:21:48;;;;;;;24.83;3.13;;;;;;;9.71;73.71;102370.66;5032254;28;20033;-39
2021/11/17 17:24:13;;;;;;;28.23;4.03;;;;;;;9.70;72.92;102374.34;5031964;28;20482;-40
2021/11/17 17:26:39;;;;;;;29.08;3.13;;;;;;;9.72;72.04;102383.97;5032164;28;20041;-41
2021/11/17 17:29:06;;;;;;;30.73;3.60;;;;;;;9.72;71.82;102391.19;5029951;28;20022;-41
2021/11/17 17:31:32;;;;;;;34.47;9.33;;;;;;;9.74;71.90;102387.38;5031872;28;20041;-40
2021/11/17 17:33:58;;;;;;;31.48;4.53;;;;;;;9.74;71.55;102392.75;5031875;28;20272;-40
2021/11/17 17:36:24;;;;;;;32.85;4.63;;;;;;;9.72;71.73;102393.88;5031784;28;20029;-40
2021/11/17 17:38:50;;;;;;;24.63;3.05;;;;;;;9.67;72.72;102400.50;5031044;28;20491;-41
2021/11/17 17:41:16;;;;;;;30.42;3.80;;;;;;;9.62;72.84;102399.22;5032318;28;20029;-39
2021/11/17 17:43:42;;;;;;;25.55;3.40;;;;;;;9.62;73.06;102404.59;5031170;28;20075;-40
2021/11/17 17:46:08;;;;;;;40.50;4.05;;;;;;;9.62;73.08;102404.59;5031896;28;20033;-40
2021/11/17 17:48:34;;;;;;;29.77;3.42;;;;;;;9.66;73.27;102411.38;5032302;28;20030;-40
2021/11/17 17:51:01;;;;;;;30.83;4.07;;;;;;;9.70;72.56;102403.91;5024438;28;20029;-40
2021/11/17 17:53:29;;;;;;;26.25;2.95;;;;;;;9.67;72.57;102413.94;5036259;28;20531;-39
2021/11/17 17:55:56;;;;;;;33.75;3.55;;;;;;;9.66;73.25;102409.56;5031396;28;20113;-39
2021/11/17 17:58:22;;;;;;;24.25;3.78;;;;;;;9.67;73.23;102415.78;5032899;28;20040;-39
2021/11/17 18:00:49;;;;;;;26.35;4.55;;;;;;;9.70;73.14;102420.03;5039541;28;20473;-40
2021/11/17 18:03:18;;;;;;;24.80;4.67;;;;;;;9.72;73.50;102413.53;5020943;28;20037;-41
2021/11/17 18:05:43;;;;;;;26.95;3.83;;;;;;;9.76;73.41;102428.41;5010253;28;20060;-40
2021/11/17 18:08:10;;;;;;;28.73;3.50;;;;;;;9.82;72.79;102419.78;5013241;28;20014;-41
2021/11/17 18:10:37;;;;;;;23.63;3.00;;;;;;;9.90;72.82;102429.88;5030870;28;20022;-41
2021/11/17 18:13:03;;;;;;;28.13;3.70;;;;;;;9.93;72.37;102434.13;5032303;28;20477;-40
2021/11/17 18:15:34;;;;;;;26.10;4.30;;;;;;;10.01;72.04;102437.81;5041799;28;20033;-40
2021/11/17 18:17:59;;;;;;;26.38;3.78;;;;;;;10.03;71.06;102434.94;5025726;28;20033;-39
2021/11/17 18:20:24;;;;;;;18.77;3.40;;;;;;;10.03;69.63;102440.34;5042801;28;20048;-39
2021/11/17 18:22:50;;;;;;;29.52;3.20;;;;;;;9.99;69.42;102447.84;5050796;28;20115;-40
2021/11/17 18:25:23;;;;;;;30.02;2.88;;;;;;;10.02;69.47;102444.88;5051047;28;20086;-40
2021/11/17 18:27:49;;;;;;;31.77;4.35;;;;;;;10.03;69.43;102438.53;5050604;28;20032;-40
2021/11/17 18:30:16;;;;;;;30.70;4.97;;;;;;;10.05;69.44;102439.22;5050850;28;20107;-41
2021/11/17 18:32:42;;;;;;;31.50;3.50;;;;;;;10.02;69.81;102438.66;5049650;28;20112;-41
2021/11/17 18:35:09;;;;;;;30.63;3.85;;;;;;;9.93;70.56;102434.97;5050935;28;20111;-41
2021/11/17 18:37:35;;;;;;;30.55;3.33;;;;;;;9.94;70.34;102431.28;5034640;28;20034;-40
2021/11/17 18:40:00;;;;;;;34.38;4.32;;;;;;;9.87;70.71;102438.19;5029477;28;20040;-40
2021/11/17 18:42:32;;;;;;;31.75;3.10;;;;;;;9.81;70.86;102436.91;5030810;28;20029;-41
2021/11/17 18:44:58;;;;;;;30.55;3.45;;;;;;;9.76;72.17;102443.69;5030763;28;20492;-41
2021/11/17 18:47:23;;;;;;;24.20;3.70;;;;;;;9.71;71.79;102444.09;5030552;28;20025;-41
2021/11/17 18:49:48;;;;;;;31.88;3.85;;;;;;;9.70;73.05;102450.47;5029851;28;20064;-39
2021/11/17 18:52:15;;;;;;;32.70;4.05;;;;;;;9.73;72.31;102450.19;5030856;28;20029;-38
2021/11/17 18:54:41;;;;;;;37.90;4.22;;;;;;;9.77;73.03;102459.69;5030242;28;20125;-39
2021/11/17 18:57:06;;;;;;;32.05;3.63;;;;;;;9.79;72.42;102465.75;5030544;28;20029;-41
2021/11/17 18:59:32;;;;;;;27.08;4.10;;;;;;;9.81;72.17;102469.16;5029108;28;20040;-40
2021/11/17 19:02:20;;;;;;;23.23;3.67;;;;;;;9.84;71.95;102473.41;5030190;28;20596;-39
2021/11/17 19:04:45;;;;;;;30.85;4.38;;;;;;;9.89;71.35;102476.56;5028871;28;20036;-40
2021/11/17 19:07:11;;;;;;;38.67;4.10;;;;;;;9.89;71.65;102472.00;5030168;28;20053;-40
2021/11/17 19:09:36;;;;;;;34.40;4.60;;;;;;;9.89;71.33;102482.78;5029394;28;20025;-40
2021/11/17 19:12:01;;;;;;;31.42;4.40;;;;;;;9.93;71.58;102487.91;5033277;28;20061;-40
2021/11/17 19:14:30;;;;;;;29.98;3.90;;;;;;;9.91;72.02;102479.13;5033250;28;20084;-41
2021/11/17 19:16:56;;;;;;;;;;;;;;;9.91;72.04;102487.19;5033526;28;20036;-40
2021/11/17 19:19:21;;;;;;;25.38;3.75;;;;;;;9.89;72.44;102498.91;5033185;28;19974;-40
2021/11/17 19:21:47;;;;;;;24.20;3.97;;;;;;;9.89;72.15;102498.91;5031855;28;20029;-40
2021/11/17 19:24:12;;;;;;;32.13;5.20;;;;;;;9.92;71.76;102488.88;5028197;28;20094;-40
2021/11/17 19:26:38;;;;;;;43.60;6.22;;;;;;;9.89;71.80;102482.78;5029622;28;20017;-39
2021/11/17 19:29:03;;;;;;;30.15;4.95;;;;;;;9.85;72.01;102485.91;5029223;28;20086;-40
2021/11/17 19:31:28;;;;;;;32.83;4.35;;;;;;;9.83;72.00;102488.72;5014195;28;20455;-39
2021/11/17 19:33:54;;;;;;;30.17;3.83;;;;;;;9.80;72.37;102493.53;5028634;28;20056;-40
2021/11/17 19:36:23;;;;;;;46.40;5.03;;;;;;;9.76;72.08;102479.47;5029236;28;20429;-40
2021/11/17 19:38:49;;;;;;;32.58;4.15;;;;;;;9.74;72.48;102488.66;5008170;28;20033;-39
2021/11/17 19:41:34;;;;;;;27.98;4.40;;;;;;;9.71;72.62;102483.56;5009708;28;20641;-40
2021/11/17 19:43:59;;;;;;;41.50;4.47;;;;;;;9.67;73.18;102480.31;5009293;28;20050;-40